sensor_id;sensor_type;location;lat;lon;timestamp;P1;durP1;ratioP1;P2;durP2;ratioP2
51616;SDS011;37697;52.588;13.394;2022-07-06T00:00:04;2.52;;;0.70;;
51616;SDS011;37697;52.588;13.394;2022-07-06T00:05:08;1.50;;;0.60;;
51616;SDS011;37697;52.588;13.394;2022-07-06T00:10:09;1.67;;;0.77;;
51616;SDS011;37697;52.588;13.394;2022-07-06T00:15:10;2.72;;;0.72;;
51616;SDS011;37697;52.588;13.394;2022-07-06T00:20:11;2.05;;;0.80;;
51616;SDS011;37697;52.588;13.394;2022-07-06T00:25:12;1.72;;;0.60;;
51616;SDS011;37697;52.588;13.394;2022-07-06T00:30:12;3.75;;;0.60;;
51616;SDS011;37697;52.588;13.394;2022-07-06T00:35:13;1.17;;;0.70;;
51616;SDS011;37697;52.588;13.394;2022-07-06T00:40:14;3.50;;;0.78;;
51616;SDS011;37697;52.588;13.394;2022-07-06T00:45:15;2.03;;;0.80;;
51616;SDS011;37697;52.588;13.394;2022-07-06T00:50:18;1.98;;;0.60;;
51616;SDS011;37697;52.588;13.394;2022-07-06T00:55:23;2.00;;;0.68;;
51616;SDS011;37697;52.588;13.394;2022-07-06T01:00:27;1.65;;;0.70;;
51616;SDS011;37697;52.588;13.394;2022-07-06T01:05:29;2.15;;;0.80;;
51616;SDS011;37697;52.588;13.394;2022-07-06T01:15:30;1.60;;;0.75;;
51616;SDS011;37697;52.588;13.394;2022-07-06T01:20:31;5.53;;;0.93;;
51616;SDS011;37697;52.588;13.394;2022-07-06T01:25:32;10.28;;;1.10;;
51616;SDS011;37697;52.588;13.394;2022-07-06T01:30:33;4.37;;;0.90;;
51616;SDS011;37697;52.588;13.394;2022-07-06T01:35:34;3.67;;;0.83;;
51616;SDS011;37697;52.588;13.394;2022-07-06T01:40:38;2.00;;;0.85;;
51616;SDS011;37697;52.588;13.394;2022-07-06T01:45:38;3.57;;;0.90;;
51616;SDS011;37697;52.588;13.394;2022-07-06T01:55:39;2.85;;;0.82;;
51616;SDS011;37697;52.588;13.394;2022-07-06T02:00:40;1.20;;;0.70;;
51616;SDS011;37697;52.588;13.394;2022-07-06T02:10:42;2.70;;;0.80;;
51616;SDS011;37697;52.588;13.394;2022-07-06T02:15:43;1.77;;;0.80;;
51616;SDS011;37697;52.588;13.394;2022-07-06T02:20:44;1.80;;;0.70;;
51616;SDS011;37697;52.588;13.394;2022-07-06T02:25:46;3.45;;;1.07;;
51616;SDS011;37697;52.588;13.394;2022-07-06T02:30:47;3.58;;;0.90;;
51616;SDS011;37697;52.588;13.394;2022-07-06T02:35:47;2.40;;;0.90;;
51616;SDS011;37697;52.588;13.394;2022-07-06T02:40:48;3.93;;;1.27;;
51616;SDS011;37697;52.588;13.394;2022-07-06T02:50:49;2.33;;;1.17;;
51616;SDS011;37697;52.588;13.394;2022-07-06T03:00:50;3.25;;;1.40;;
51616;SDS011;37697;52.588;13.394;2022-07-06T03:05:51;3.22;;;1.30;;
51616;SDS011;37697;52.588;13.394;2022-07-06T03:10:52;2.92;;;1.10;;
51616;SDS011;37697;52.588;13.394;2022-07-06T03:15:53;4.13;;;1.27;;
51616;SDS011;37697;52.588;13.394;2022-07-06T03:20:54;4.40;;;1.37;;
51616;SDS011;37697;52.588;13.394;2022-07-06T03:25:58;3.10;;;1.25;;
51616;SDS011;37697;52.588;13.394;2022-07-06T03:30:58;3.20;;;1.47;;
51616;SDS011;37697;52.588;13.394;2022-07-06T03:35:59;3.40;;;1.37;;
51616;SDS011;37697;52.588;13.394;2022-07-06T03:41:00;6.47;;;1.70;;
51616;SDS011;37697;52.588;13.394;2022-07-06T03:51:01;5.03;;;1.90;;
51616;SDS011;37697;52.588;13.394;2022-07-06T03:56:02;4.50;;;1.67;;
51616;SDS011;37697;52.588;13.394;2022-07-06T04:01:22;2.22;;;1.27;;
51616;SDS011;37697;52.588;13.394;2022-07-06T04:11:24;6.23;;;1.70;;
51616;SDS011;37697;52.588;13.394;2022-07-06T04:16:24;7.50;;;1.80;;
51616;SDS011;37697;52.588;13.394;2022-07-06T04:21:25;7.57;;;1.43;;
51616;SDS011;37697;52.588;13.394;2022-07-06T04:26:26;5.70;;;1.60;;
51616;SDS011;37697;52.588;13.394;2022-07-06T04:31:27;4.03;;;1.40;;
51616;SDS011;37697;52.588;13.394;2022-07-06T04:36:28;4.42;;;1.55;;
51616;SDS011;37697;52.588;13.394;2022-07-06T04:41:28;6.50;;;1.40;;
51616;SDS011;37697;52.588;13.394;2022-07-06T04:46:29;5.85;;;1.22;;
51616;SDS011;37697;52.588;13.394;2022-07-06T04:51:30;5.70;;;1.98;;
51616;SDS011;37697;52.588;13.394;2022-07-06T04:56:30;2.98;;;1.10;;
51616;SDS011;37697;52.588;13.394;2022-07-06T05:01:31;2.42;;;1.00;;
51616;SDS011;37697;52.588;13.394;2022-07-06T05:06:32;7.15;;;1.87;;
51616;SDS011;37697;52.588;13.394;2022-07-06T05:11:33;3.27;;;1.10;;
51616;SDS011;37697;52.588;13.394;2022-07-06T05:16:34;5.58;;;1.40;;
51616;SDS011;37697;52.588;13.394;2022-07-06T05:21:35;2.72;;;1.15;;
51616;SDS011;37697;52.588;13.394;2022-07-06T05:31:36;5.65;;;1.12;;
51616;SDS011;37697;52.588;13.394;2022-07-06T05:36:37;4.30;;;1.27;;
51616;SDS011;37697;52.588;13.394;2022-07-06T05:41:37;4.12;;;1.15;;
51616;SDS011;37697;52.588;13.394;2022-07-06T05:46:38;4.62;;;1.02;;
51616;SDS011;37697;52.588;13.394;2022-07-06T05:51:39;4.42;;;1.00;;
51616;SDS011;37697;52.588;13.394;2022-07-06T05:56:40;3.70;;;0.90;;
51616;SDS011;37697;52.588;13.394;2022-07-06T06:01:41;3.90;;;1.00;;
51616;SDS011;37697;52.588;13.394;2022-07-06T06:06:41;5.10;;;1.30;;
51616;SDS011;37697;52.588;13.394;2022-07-06T06:11:42;3.62;;;1.57;;
51616;SDS011;37697;52.588;13.394;2022-07-06T06:16:43;5.53;;;1.80;;
51616;SDS011;37697;52.588;13.394;2022-07-06T06:26:44;4.42;;;0.90;;
51616;SDS011;37697;52.588;13.394;2022-07-06T06:31:45;7.83;;;1.55;;
51616;SDS011;37697;52.588;13.394;2022-07-06T06:36:45;4.90;;;1.50;;
51616;SDS011;37697;52.588;13.394;2022-07-06T06:46:46;4.00;;;1.20;;
51616;SDS011;37697;52.588;13.394;2022-07-06T06:51:47;5.67;;;1.65;;
51616;SDS011;37697;52.588;13.394;2022-07-06T06:56:48;3.95;;;1.20;;
51616;SDS011;37697;52.588;13.394;2022-07-06T07:01:48;3.90;;;1.40;;
51616;SDS011;37697;52.588;13.394;2022-07-06T07:06:49;6.72;;;1.30;;
51616;SDS011;37697;52.588;13.394;2022-07-06T07:16:51;4.60;;;1.43;;
51616;SDS011;37697;52.588;13.394;2022-07-06T07:21:51;4.83;;;1.20;;
51616;SDS011;37697;52.588;13.394;2022-07-06T07:31:52;5.60;;;1.40;;
51616;SDS011;37697;52.588;13.394;2022-07-06T07:36:53;2.90;;;0.90;;
51616;SDS011;37697;52.588;13.394;2022-07-06T07:41:54;2.60;;;0.70;;
51616;SDS011;37697;52.588;13.394;2022-07-06T07:51:55;2.58;;;0.70;;
51616;SDS011;37697;52.588;13.394;2022-07-06T07:56:56;3.98;;;0.95;;
51616;SDS011;37697;52.588;13.394;2022-07-06T08:01:57;1.87;;;0.80;;
51616;SDS011;37697;52.588;13.394;2022-07-06T08:06:57;2.65;;;1.00;;
51616;SDS011;37697;52.588;13.394;2022-07-06T08:11:58;3.17;;;0.80;;
51616;SDS011;37697;52.588;13.394;2022-07-06T08:16:59;3.80;;;0.80;;
51616;SDS011;37697;52.588;13.394;2022-07-06T08:27:01;4.22;;;1.12;;
51616;SDS011;37697;52.588;13.394;2022-07-06T08:32:03;5.08;;;0.88;;
51616;SDS011;37697;52.588;13.394;2022-07-06T08:37:04;2.12;;;0.88;;
51616;SDS011;37697;52.588;13.394;2022-07-06T08:42:05;3.75;;;1.47;;
51616;SDS011;37697;52.588;13.394;2022-07-06T08:47:08;2.37;;;0.80;;
51616;SDS011;37697;52.588;13.394;2022-07-06T08:52:10;3.25;;;0.70;;
51616;SDS011;37697;52.588;13.394;2022-07-06T08:57:11;1.98;;;0.68;;
51616;SDS011;37697;52.588;13.394;2022-07-06T09:02:13;5.05;;;0.90;;
51616;SDS011;37697;52.588;13.394;2022-07-06T09:07:15;1.37;;;0.62;;
51616;SDS011;37697;52.588;13.394;2022-07-06T09:12:16;3.80;;;0.70;;
51616;SDS011;37697;52.588;13.394;2022-07-06T09:17:17;2.72;;;1.00;;
51616;SDS011;37697;52.588;13.394;2022-07-06T09:22:28;3.17;;;1.02;;
51616;SDS011;37697;52.588;13.394;2022-07-06T09:27:36;3.35;;;1.10;;
51616;SDS011;37697;52.588;13.394;2022-07-06T09:32:46;2.52;;;0.90;;
51616;SDS011;37697;52.588;13.394;2022-07-06T09:38:00;2.08;;;0.60;;
51616;SDS011;37697;52.588;13.394;2022-07-06T09:43:19;4.33;;;1.02;;
51616;SDS011;37697;52.588;13.394;2022-07-06T09:48:26;2.20;;;0.78;;
51616;SDS011;37697;52.588;13.394;2022-07-06T09:53:28;4.22;;;0.98;;
51616;SDS011;37697;52.588;13.394;2022-07-06T09:58:29;3.65;;;0.68;;
51616;SDS011;37697;52.588;13.394;2022-07-06T10:03:29;4.58;;;0.90;;
51616;SDS011;37697;52.588;13.394;2022-07-06T10:08:32;4.30;;;0.90;;
51616;SDS011;37697;52.588;13.394;2022-07-06T10:13:32;5.12;;;0.70;;
51616;SDS011;37697;52.588;13.394;2022-07-06T10:18:36;2.95;;;0.98;;
51616;SDS011;37697;52.588;13.394;2022-07-06T10:23:37;3.45;;;0.65;;
51616;SDS011;37697;52.588;13.394;2022-07-06T10:28:40;12.13;;;1.05;;
51616;SDS011;37697;52.588;13.394;2022-07-06T10:33:42;5.72;;;0.72;;
51616;SDS011;37697;52.588;13.394;2022-07-06T10:38:46;3.02;;;0.72;;
51616;SDS011;37697;52.588;13.394;2022-07-06T10:43:50;0.98;;;0.60;;
51616;SDS011;37697;52.588;13.394;2022-07-06T10:48:51;2.85;;;0.60;;
51616;SDS011;37697;52.588;13.394;2022-07-06T10:53:56;1.35;;;0.78;;
51616;SDS011;37697;52.588;13.394;2022-07-06T10:59:02;2.33;;;0.50;;
51616;SDS011;37697;52.588;13.394;2022-07-06T11:04:12;2.98;;;0.57;;
51616;SDS011;37697;52.588;13.394;2022-07-06T11:09:15;5.03;;;0.70;;
51616;SDS011;37697;52.588;13.394;2022-07-06T11:14:17;1.40;;;0.30;;
51616;SDS011;37697;52.588;13.394;2022-07-06T11:19:18;2.33;;;0.40;;
51616;SDS011;37697;52.588;13.394;2022-07-06T11:24:24;2.75;;;0.60;;
51616;SDS011;37697;52.588;13.394;2022-07-06T11:29:29;2.92;;;0.60;;
51616;SDS011;37697;52.588;13.394;2022-07-06T11:34:32;3.20;;;0.70;;
51616;SDS011;37697;52.588;13.394;2022-07-06T11:39:36;2.80;;;0.55;;
51616;SDS011;37697;52.588;13.394;2022-07-06T11:44:42;3.20;;;0.70;;
51616;SDS011;37697;52.588;13.394;2022-07-06T11:49:49;3.15;;;0.70;;
51616;SDS011;37697;52.588;13.394;2022-07-06T11:54:56;2.50;;;0.60;;
51616;SDS011;37697;52.588;13.394;2022-07-06T12:00:02;3.60;;;0.60;;
51616;SDS011;37697;52.588;13.394;2022-07-06T12:05:04;3.55;;;0.60;;
51616;SDS011;37697;52.588;13.394;2022-07-06T12:10:06;2.75;;;0.62;;
51616;SDS011;37697;52.588;13.394;2022-07-06T12:15:08;2.45;;;0.53;;
51616;SDS011;37697;52.588;13.394;2022-07-06T12:20:09;2.25;;;0.50;;
51616;SDS011;37697;52.588;13.394;2022-07-06T12:25:10;3.35;;;0.85;;
51616;SDS011;37697;52.588;13.394;2022-07-06T12:30:12;4.28;;;0.60;;
51616;SDS011;37697;52.588;13.394;2022-07-06T12:35:14;1.82;;;0.50;;
51616;SDS011;37697;52.588;13.394;2022-07-06T12:40:15;3.47;;;0.53;;
51616;SDS011;37697;52.588;13.394;2022-07-06T12:45:16;2.65;;;0.55;;
51616;SDS011;37697;52.588;13.394;2022-07-06T12:55:17;1.67;;;0.50;;
51616;SDS011;37697;52.588;13.394;2022-07-06T13:00:25;6.22;;;0.70;;
51616;SDS011;37697;52.588;13.394;2022-07-06T13:05:26;3.35;;;0.50;;
51616;SDS011;37697;52.588;13.394;2022-07-06T13:10:27;2.00;;;0.50;;
51616;SDS011;37697;52.588;13.394;2022-07-06T13:15:30;8.93;;;0.82;;
51616;SDS011;37697;52.588;13.394;2022-07-06T13:20:31;4.58;;;0.60;;
51616;SDS011;37697;52.588;13.394;2022-07-06T13:25:31;2.08;;;0.47;;
51616;SDS011;37697;52.588;13.394;2022-07-06T13:30:32;0.75;;;0.30;;
51616;SDS011;37697;52.588;13.394;2022-07-06T13:35:33;0.80;;;0.33;;
51616;SDS011;37697;52.588;13.394;2022-07-06T13:40:33;1.82;;;0.47;;
51616;SDS011;37697;52.588;13.394;2022-07-06T13:45:35;1.02;;;0.40;;
51616;SDS011;37697;52.588;13.394;2022-07-06T13:50:37;1.67;;;0.30;;
51616;SDS011;37697;52.588;13.394;2022-07-06T13:55:37;5.67;;;0.50;;
51616;SDS011;37697;52.588;13.394;2022-07-06T14:00:39;1.53;;;0.33;;
51616;SDS011;37697;52.588;13.394;2022-07-06T14:05:40;2.45;;;0.50;;
51616;SDS011;37697;52.588;13.394;2022-07-06T14:10:41;1.02;;;0.40;;
51616;SDS011;37697;52.588;13.394;2022-07-06T14:20:42;2.58;;;0.40;;
51616;SDS011;37697;52.588;13.394;2022-07-06T14:25:45;2.65;;;0.85;;
51616;SDS011;37697;52.588;13.394;2022-07-06T14:30:46;2.02;;;0.70;;
51616;SDS011;37697;52.588;13.394;2022-07-06T14:35:48;1.77;;;0.40;;
51616;SDS011;37697;52.588;13.394;2022-07-06T14:40:53;2.08;;;0.40;;
51616;SDS011;37697;52.588;13.394;2022-07-06T14:45:54;2.17;;;0.80;;
51616;SDS011;37697;52.588;13.394;2022-07-06T14:50:54;2.40;;;0.57;;
51616;SDS011;37697;52.588;13.394;2022-07-06T14:55:55;2.25;;;0.50;;
51616;SDS011;37697;52.588;13.394;2022-07-06T15:00:56;2.72;;;0.80;;
51616;SDS011;37697;52.588;13.394;2022-07-06T15:10:57;1.42;;;0.53;;
51616;SDS011;37697;52.588;13.394;2022-07-06T15:20:59;5.75;;;0.80;;
51616;SDS011;37697;52.588;13.394;2022-07-06T15:26:01;2.67;;;0.60;;
51616;SDS011;37697;52.588;13.394;2022-07-06T15:31:03;2.02;;;0.50;;
51616;SDS011;37697;52.588;13.394;2022-07-06T15:36:03;3.80;;;0.60;;
51616;SDS011;37697;52.588;13.394;2022-07-06T15:41:04;2.62;;;0.70;;
51616;SDS011;37697;52.588;13.394;2022-07-06T15:46:06;2.10;;;0.70;;
51616;SDS011;37697;52.588;13.394;2022-07-06T15:51:07;3.85;;;0.68;;
51616;SDS011;37697;52.588;13.394;2022-07-06T15:56:08;2.87;;;0.60;;
51616;SDS011;37697;52.588;13.394;2022-07-06T16:01:09;4.78;;;0.80;;
51616;SDS011;37697;52.588;13.394;2022-07-06T16:06:10;2.08;;;0.75;;
51616;SDS011;37697;52.588;13.394;2022-07-06T16:11:11;3.40;;;0.90;;
51616;SDS011;37697;52.588;13.394;2022-07-06T16:16:14;3.83;;;0.70;;
51616;SDS011;37697;52.588;13.394;2022-07-06T16:21:17;1.35;;;0.40;;
51616;SDS011;37697;52.588;13.394;2022-07-06T16:26:18;2.27;;;0.40;;
51616;SDS011;37697;52.588;13.394;2022-07-06T16:31:18;1.98;;;0.50;;
51616;SDS011;37697;52.588;13.394;2022-07-06T16:36:19;2.62;;;0.60;;
51616;SDS011;37697;52.588;13.394;2022-07-06T16:41:20;2.27;;;0.57;;
51616;SDS011;37697;52.588;13.394;2022-07-06T16:46:20;3.10;;;0.60;;
51616;SDS011;37697;52.588;13.394;2022-07-06T16:51:21;2.00;;;0.62;;
51616;SDS011;37697;52.588;13.394;2022-07-06T16:56:22;4.10;;;1.07;;
51616;SDS011;37697;52.588;13.394;2022-07-06T17:01:22;2.55;;;0.50;;
51616;SDS011;37697;52.588;13.394;2022-07-06T17:06:23;1.82;;;0.55;;
51616;SDS011;37697;52.588;13.394;2022-07-06T17:11:26;5.20;;;0.53;;
51616;SDS011;37697;52.588;13.394;2022-07-06T17:16:27;2.85;;;0.50;;
51616;SDS011;37697;52.588;13.394;2022-07-06T17:26:28;2.73;;;0.50;;
51616;SDS011;37697;52.588;13.394;2022-07-06T17:31:32;3.67;;;0.80;;
51616;SDS011;37697;52.588;13.394;2022-07-06T17:36:33;17.92;;;1.12;;
51616;SDS011;37697;52.588;13.394;2022-07-06T17:41:33;2.70;;;0.55;;
51616;SDS011;37697;52.588;13.394;2022-07-06T17:46:34;1.15;;;0.50;;
51616;SDS011;37697;52.588;13.394;2022-07-06T17:51:35;1.60;;;0.60;;
51616;SDS011;37697;52.588;13.394;2022-07-06T17:56:36;3.08;;;0.50;;
51616;SDS011;37697;52.588;13.394;2022-07-06T18:01:37;3.08;;;0.75;;
51616;SDS011;37697;52.588;13.394;2022-07-06T18:06:37;1.45;;;0.50;;
51616;SDS011;37697;52.588;13.394;2022-07-06T18:11:38;2.00;;;0.70;;
51616;SDS011;37697;52.588;13.394;2022-07-06T18:16:39;2.20;;;0.50;;
51616;SDS011;37697;52.588;13.394;2022-07-06T18:21:42;3.10;;;0.50;;
51616;SDS011;37697;52.588;13.394;2022-07-06T18:26:46;2.77;;;0.70;;
51616;SDS011;37697;52.588;13.394;2022-07-06T18:31:47;2.37;;;0.95;;
51616;SDS011;37697;52.588;13.394;2022-07-06T18:46:51;1.90;;;0.40;;
51616;SDS011;37697;52.588;13.394;2022-07-06T18:56:52;1.55;;;0.82;;
51616;SDS011;37697;52.588;13.394;2022-07-06T19:01:53;3.12;;;0.93;;
51616;SDS011;37697;52.588;13.394;2022-07-06T19:06:54;2.70;;;0.70;;
51616;SDS011;37697;52.588;13.394;2022-07-06T19:11:55;1.50;;;0.60;;
51616;SDS011;37697;52.588;13.394;2022-07-06T19:16:55;3.02;;;0.70;;
51616;SDS011;37697;52.588;13.394;2022-07-06T19:21:57;1.98;;;0.80;;
51616;SDS011;37697;52.588;13.394;2022-07-06T19:26:57;1.22;;;0.70;;
51616;SDS011;37697;52.588;13.394;2022-07-06T19:37:01;2.85;;;0.68;;
51616;SDS011;37697;52.588;13.394;2022-07-06T19:42:02;1.85;;;0.50;;
51616;SDS011;37697;52.588;13.394;2022-07-06T19:47:03;2.20;;;0.72;;
51616;SDS011;37697;52.588;13.394;2022-07-06T19:57:05;2.80;;;0.50;;
51616;SDS011;37697;52.588;13.394;2022-07-06T20:02:07;1.85;;;0.50;;
51616;SDS011;37697;52.588;13.394;2022-07-06T20:12:08;1.05;;;0.50;;
51616;SDS011;37697;52.588;13.394;2022-07-06T20:17:09;2.27;;;0.50;;
51616;SDS011;37697;52.588;13.394;2022-07-06T20:22:10;2.90;;;0.60;;
51616;SDS011;37697;52.588;13.394;2022-07-06T20:32:12;1.07;;;0.40;;
51616;SDS011;37697;52.588;13.394;2022-07-06T20:37:13;2.00;;;0.70;;
51616;SDS011;37697;52.588;13.394;2022-07-06T20:42:13;2.67;;;0.40;;
51616;SDS011;37697;52.588;13.394;2022-07-06T20:47:14;2.08;;;0.70;;
51616;SDS011;37697;52.588;13.394;2022-07-06T20:52:16;1.40;;;0.60;;
51616;SDS011;37697;52.588;13.394;2022-07-06T20:57:19;2.20;;;0.80;;
51616;SDS011;37697;52.588;13.394;2022-07-06T21:02:19;2.25;;;0.60;;
51616;SDS011;37697;52.588;13.394;2022-07-06T21:07:20;2.25;;;0.80;;
51616;SDS011;37697;52.588;13.394;2022-07-06T21:12:21;6.30;;;1.00;;
51616;SDS011;37697;52.588;13.394;2022-07-06T21:17:22;2.90;;;1.20;;
51616;SDS011;37697;52.588;13.394;2022-07-06T21:22:23;4.40;;;1.15;;
51616;SDS011;37697;52.588;13.394;2022-07-06T21:32:24;3.67;;;1.35;;
51616;SDS011;37697;52.588;13.394;2022-07-06T21:37:25;3.37;;;1.25;;
51616;SDS011;37697;52.588;13.394;2022-07-06T21:42:28;3.55;;;1.60;;
51616;SDS011;37697;52.588;13.394;2022-07-06T21:52:30;3.55;;;1.77;;
51616;SDS011;37697;52.588;13.394;2022-07-06T22:02:32;3.52;;;1.60;;
51616;SDS011;37697;52.588;13.394;2022-07-06T22:07:32;4.08;;;1.45;;
51616;SDS011;37697;52.588;13.394;2022-07-06T22:12:33;4.07;;;2.00;;
51616;SDS011;37697;52.588;13.394;2022-07-06T22:17:34;2.52;;;1.50;;
51616;SDS011;37697;52.588;13.394;2022-07-06T22:22:35;3.60;;;1.60;;
51616;SDS011;37697;52.588;13.394;2022-07-06T22:32:36;3.02;;;1.55;;
51616;SDS011;37697;52.588;13.394;2022-07-06T22:37:37;4.00;;;1.50;;
51616;SDS011;37697;52.588;13.394;2022-07-06T22:42:37;3.97;;;1.40;;
51616;SDS011;37697;52.588;13.394;2022-07-06T22:47:39;2.90;;;1.25;;
51616;SDS011;37697;52.588;13.394;2022-07-06T22:52:40;3.50;;;1.50;;
51616;SDS011;37697;52.588;13.394;2022-07-06T22:57:40;3.47;;;1.37;;
51616;SDS011;37697;52.588;13.394;2022-07-06T23:02:41;2.63;;;1.40;;
51616;SDS011;37697;52.588;13.394;2022-07-06T23:07:42;3.35;;;1.45;;
51616;SDS011;37697;52.588;13.394;2022-07-06T23:12:43;3.20;;;1.30;;
51616;SDS011;37697;52.588;13.394;2022-07-06T23:17:45;2.08;;;1.02;;
51616;SDS011;37697;52.588;13.394;2022-07-06T23:22:45;2.57;;;1.07;;
51616;SDS011;37697;52.588;13.394;2022-07-06T23:27:47;1.30;;;0.80;;
51616;SDS011;37697;52.588;13.394;2022-07-06T23:32:48;2.03;;;0.70;;
51616;SDS011;37697;52.588;13.394;2022-07-06T23:37:48;2.87;;;0.80;;
51616;SDS011;37697;52.588;13.394;2022-07-06T23:42:49;2.43;;;0.93;;
51616;SDS011;37697;52.588;13.394;2022-07-06T23:47:50;2.40;;;0.90;;
51616;SDS011;37697;52.588;13.394;2022-07-06T23:52:50;2.07;;;0.80;;
51616;SDS011;37697;52.588;13.394;2022-07-06T23:57:51;1.97;;;0.63;;
